createdAt,value
2023-01-11T00:00:10.514Z,2.97
2023-01-11T00:03:12.974Z,2.40
2023-01-11T00:06:15.127Z,1.75
2023-01-11T00:09:17.487Z,3.10
2023-01-11T00:12:21.894Z,3.08
2023-01-11T00:15:23.739Z,3.17
2023-01-11T00:18:25.739Z,2.92
2023-01-11T00:21:27.897Z,3.35
2023-01-11T00:24:30.229Z,3.95
2023-01-11T00:27:32.461Z,3.13
2023-01-11T00:30:35.946Z,2.27
2023-01-11T00:33:37.899Z,1.65
2023-01-11T00:36:39.791Z,1.95
2023-01-11T00:39:44.901Z,3.15
2023-01-11T00:43:05.650Z,2.80
2023-01-11T00:46:27.900Z,3.40
2023-01-11T00:49:32.564Z,1.75
2023-01-11T00:52:34.353Z,2.58
2023-01-11T00:55:36.887Z,2.13
2023-01-11T00:58:39.086Z,3.40
2023-01-11T01:01:41.835Z,2.10
2023-01-11T01:04:44.063Z,2.50
2023-01-11T01:07:47.234Z,2.65
2023-01-11T01:10:52.615Z,2.90
2023-01-11T01:14:13.170Z,2.00
2023-01-11T01:17:15.108Z,2.43
2023-01-11T01:20:17.468Z,2.10
2023-01-11T01:23:19.514Z,2.50
2023-01-11T01:26:23.510Z,2.97
2023-01-11T01:29:26.272Z,2.70
2023-01-11T01:32:29.762Z,2.77
2023-01-11T01:35:35.215Z,2.50
2023-01-11T01:38:37.647Z,2.63
2023-01-11T01:41:39.821Z,3.05
2023-01-11T01:45:09.996Z,3.28
2023-01-11T01:48:18.395Z,3.03
2023-01-11T01:51:46.611Z,2.92
2023-01-11T01:54:49.812Z,2.60
2023-01-11T01:57:53.888Z,2.45
2023-01-11T02:00:56.288Z,2.70
2023-01-11T02:03:59.812Z,2.70
2023-01-11T02:07:17.712Z,2.25
2023-01-11T02:10:23.420Z,2.90
2023-01-11T02:13:30.257Z,3.00
2023-01-11T02:16:34.152Z,2.47
2023-01-11T02:19:36.027Z,2.33
2023-01-11T02:23:25.869Z,3.13
2023-01-11T02:26:47.341Z,2.00
2023-01-11T02:29:58.822Z,2.80
2023-01-11T02:33:22.186Z,3.00
2023-01-11T02:36:25.446Z,2.90
2023-01-11T02:39:39.462Z,2.83
2023-01-11T02:43:21.307Z,2.85
2023-01-11T02:46:28.648Z,2.95
2023-01-11T02:50:04.008Z,3.22
2023-01-11T02:53:24.777Z,3.00
2023-01-11T02:56:31.146Z,3.53
2023-01-11T02:59:36.357Z,3.28
2023-01-11T03:02:38.569Z,3.42
2023-01-11T03:05:46.280Z,3.40
2023-01-11T03:09:08.021Z,3.30
2023-01-11T03:12:51.164Z,3.08
2023-01-11T03:16:25.208Z,3.50
2023-01-11T03:19:54.853Z,3.10
2023-01-11T03:23:08.072Z,3.60
2023-01-11T03:26:12.891Z,4.00
2023-01-11T03:29:35.860Z,3.83
2023-01-11T03:33:26.569Z,4.22
2023-01-11T03:36:39.374Z,3.92
2023-01-11T03:39:47.452Z,4.32
2023-01-11T03:43:10.995Z,4.53
2023-01-11T03:46:21.130Z,3.95
2023-01-11T03:49:37.111Z,3.70
2023-01-11T03:52:42.906Z,4.25
2023-01-11T03:55:52.492Z,4.65
2023-01-11T03:58:55.612Z,3.67
2023-01-11T04:01:58.523Z,3.80
2023-01-11T04:05:00.792Z,4.13
2023-01-11T04:08:04.014Z,3.97
2023-01-11T04:11:06.509Z,4.35
2023-01-11T04:14:08.938Z,4.30
2023-01-11T04:17:11.027Z,3.63
2023-01-11T04:20:13.272Z,2.95
2023-01-11T04:23:15.588Z,3.05
2023-01-11T04:26:17.860Z,3.13
2023-01-11T04:29:19.922Z,3.67
2023-01-11T04:32:22.430Z,4.15
2023-01-11T04:35:26.175Z,3.85
2023-01-11T04:38:28.642Z,3.40
2023-01-11T04:41:51.035Z,2.92
2023-01-11T04:44:54.430Z,3.13
2023-01-11T04:47:57.586Z,3.85
2023-01-11T04:50:59.466Z,3.67
2023-01-11T04:54:01.469Z,4.53
2023-01-11T04:57:03.873Z,4.78
2023-01-11T05:00:11.060Z,4.27
2023-01-11T05:03:13.098Z,4.07
2023-01-11T05:06:16.108Z,4.40
2023-01-11T05:09:19.149Z,4.32
2023-01-11T05:12:22.450Z,4.22
2023-01-11T05:15:25.436Z,4.43
2023-01-11T05:18:29.302Z,4.38
2023-01-11T05:21:36.977Z,4.47
2023-01-11T05:24:38.992Z,3.80
2023-01-11T05:27:41.251Z,4.45
2023-01-11T05:30:43.216Z,3.60
2023-01-11T05:33:45.275Z,3.85
2023-01-11T05:36:47.647Z,4.55
2023-01-11T05:39:50.879Z,4.50
2023-01-11T05:42:53.063Z,4.80
2023-01-11T05:45:57.800Z,4.43
2023-01-11T05:49:02.040Z,4.80
2023-01-11T05:52:04.388Z,5.20
2023-01-11T05:55:07.475Z,4.80
2023-01-11T05:58:09.550Z,4.22
2023-01-11T06:01:12.430Z,5.23
2023-01-11T06:04:14.747Z,5.00
2023-01-11T06:07:17.794Z,4.60
2023-01-11T06:10:20.027Z,4.88
2023-01-11T06:13:26.504Z,5.30
2023-01-11T06:16:28.830Z,5.10
2023-01-11T06:19:31.458Z,5.63
2023-01-11T06:22:33.511Z,5.85
2023-01-11T06:25:37.645Z,5.22
2023-01-11T06:28:40.817Z,5.38
2023-01-11T06:31:43.985Z,5.60
2023-01-11T06:34:47.137Z,6.00
2023-01-11T06:37:50.176Z,4.85
2023-01-11T06:40:58.307Z,4.43
2023-01-11T06:44:02.636Z,4.68
2023-01-11T06:47:06.162Z,6.23
2023-01-11T06:50:08.783Z,4.55
2023-01-11T06:53:10.855Z,5.68
2023-01-11T06:56:19.174Z,5.47
2023-01-11T07:02:45.550Z,4.90
2023-01-11T07:05:53.758Z,5.55
2023-01-11T07:09:06.232Z,6.15
2023-01-11T07:12:09.808Z,6.05
2023-01-11T07:15:26.326Z,6.32
2023-01-11T07:18:33.882Z,6.03
2023-01-11T07:21:43.190Z,5.95
2023-01-11T07:25:29.051Z,6.18
2023-01-11T07:32:05.774Z,6.47
2023-01-11T07:35:11.457Z,7.00
2023-01-11T07:38:19.513Z,6.38
2023-01-11T07:41:42.754Z,6.50
2023-01-11T07:44:48.513Z,5.68
2023-01-11T07:47:54.426Z,7.70
2023-01-11T07:54:41.106Z,7.35
2023-01-11T08:01:15.643Z,7.35
2023-01-11T08:04:56.718Z,7.60
2023-01-11T08:08:39.172Z,8.53
2023-01-11T08:12:14.394Z,8.48
2023-01-11T08:15:22.868Z,8.30
2023-01-11T08:22:36.970Z,6.65
2023-01-11T08:25:39.355Z,6.83
2023-01-11T08:28:53.822Z,6.75
2023-01-11T08:32:20.045Z,5.32
2023-01-11T08:35:26.985Z,5.55
2023-01-11T08:38:49.841Z,6.85
2023-01-11T08:45:27.102Z,7.40
2023-01-11T08:49:14.513Z,7.00
2023-01-11T08:57:07.354Z,8.27
2023-01-11T09:00:15.830Z,8.33
2023-01-11T09:03:37.427Z,8.35
2023-01-11T09:07:16.065Z,8.30
2023-01-11T09:10:34.066Z,8.32
2023-01-11T09:13:48.063Z,8.13
2023-01-11T09:16:52.318Z,8.60
2023-01-11T09:19:57.114Z,8.13
2023-01-11T09:23:02.296Z,8.50
2023-01-11T09:26:04.935Z,6.10
2023-01-11T09:29:16.139Z,5.35
2023-01-11T09:32:21.950Z,6.33
2023-01-11T09:35:24.085Z,6.90
2023-01-11T09:38:31.008Z,6.75
2023-01-11T09:42:07.588Z,5.75
2023-01-11T09:45:19.477Z,5.95
2023-01-11T09:48:36.664Z,6.10
2023-01-11T09:51:39.914Z,5.85
2023-01-11T09:54:45.139Z,6.05
2023-01-11T09:58:27.960Z,5.68
2023-01-11T10:01:45.825Z,5.70
2023-01-11T10:05:33.428Z,5.73
2023-01-11T10:18:39.748Z,4.25
2023-01-11T10:20:47.148Z,3.33
2023-01-11T10:24:39.462Z,3.80
2023-01-11T10:28:00.662Z,3.47
2023-01-11T10:31:45.116Z,3.50
2023-01-11T10:35:01.159Z,3.15
2023-01-11T10:38:35.663Z,3.17
2023-01-11T10:42:51.872Z,2.60
2023-01-11T10:51:42.583Z,2.80
2023-01-11T10:54:53.889Z,2.83
2023-01-11T11:24:55.187Z,4.00
2023-01-11T11:29:24.876Z,4.57
2023-01-11T11:33:02.640Z,4.45
2023-01-11T11:36:17.242Z,4.35
2023-01-11T11:40:00.077Z,3.60
2023-01-11T11:43:20.743Z,5.10
2023-01-11T11:46:28.476Z,3.30
2023-01-11T11:49:33.909Z,4.10
2023-01-11T11:52:50.250Z,3.63
2023-01-11T11:56:17.349Z,3.22
2023-01-11T11:59:25.310Z,3.30
2023-01-11T12:02:45.460Z,3.03
2023-01-11T12:05:58.778Z,2.83
2023-01-11T12:09:05.827Z,3.85
2023-01-11T12:12:29.811Z,3.70
2023-01-11T12:19:52.394Z,3.53
2023-01-11T12:23:48.382Z,3.25
2023-01-11T12:27:38.442Z,3.10
2023-01-11T12:31:08.582Z,3.58
2023-01-11T12:34:37.642Z,3.67
2023-01-11T12:37:55.087Z,3.90
2023-01-11T12:41:07.909Z,4.32
2023-01-11T12:44:29.472Z,3.95
2023-01-11T12:47:39.690Z,3.40
2023-01-11T12:51:14.416Z,3.63
2023-01-11T12:54:45.473Z,3.30
2023-01-11T12:58:06.495Z,4.15
2023-01-11T13:01:19.134Z,4.90
2023-01-11T13:04:45.169Z,3.78
2023-01-11T13:07:59.901Z,4.43
2023-01-11T13:11:37.477Z,3.88
2023-01-11T13:19:33.250Z,2.92
2023-01-11T13:30:51.166Z,3.58
2023-01-11T13:34:12.662Z,3.67
2023-01-11T13:37:43.555Z,3.97
2023-01-11T13:41:01.183Z,4.43
2023-01-11T13:44:22.892Z,4.17
2023-01-11T13:47:38.342Z,3.50
2023-01-11T13:51:25.205Z,3.40
2023-01-11T13:54:58.705Z,3.20
2023-01-11T13:58:17.823Z,3.10
2023-01-11T14:01:27.790Z,2.87
2023-01-11T14:04:44.413Z,2.80
2023-01-11T14:08:24.049Z,3.47
2023-01-11T14:12:06.319Z,3.45
2023-01-11T14:15:08.575Z,3.70
2023-01-11T14:18:42.839Z,4.27
2023-01-11T14:22:21.020Z,4.18
2023-01-11T14:25:29.453Z,4.50
2023-01-11T14:28:44.391Z,3.90
2023-01-11T14:32:07.602Z,4.20
2023-01-11T14:35:37.985Z,4.20
2023-01-11T14:38:43.435Z,4.90
2023-01-11T14:42:31.268Z,4.40
2023-01-11T14:45:44.436Z,4.18
2023-01-11T14:49:24.095Z,4.15
2023-01-11T14:52:39.701Z,4.00
2023-01-11T14:55:47.335Z,3.90
2023-01-11T14:59:07.309Z,4.10
2023-01-11T15:02:10.369Z,3.85
2023-01-11T15:05:33.094Z,4.35
2023-01-11T15:08:43.339Z,4.63
2023-01-11T15:11:45.329Z,4.55
2023-01-11T15:15:01.978Z,4.90
2023-01-11T15:18:19.418Z,4.72
2023-01-11T15:21:27.209Z,5.00
2023-01-11T15:24:38.078Z,3.93
2023-01-11T15:27:43.027Z,4.30
2023-01-11T15:30:52.859Z,4.50
2023-01-11T15:33:55.832Z,4.30
2023-01-11T15:37:01.619Z,4.43
2023-01-11T15:40:10.935Z,4.30
2023-01-11T15:43:35.019Z,5.13
2023-01-11T15:47:22.212Z,5.15
2023-01-11T15:51:02.592Z,5.53
2023-01-11T15:54:19.705Z,4.18
2023-01-11T15:57:27.825Z,4.53
2023-01-11T16:00:55.527Z,3.97
2023-01-11T16:04:19.857Z,4.72
2023-01-11T16:07:44.550Z,4.72
2023-01-11T16:11:17.030Z,5.40
2023-01-11T16:14:40.979Z,4.73
2023-01-11T16:17:46.681Z,6.65
2023-01-11T16:21:23.831Z,5.30
2023-01-11T16:24:29.614Z,4.93
2023-01-11T16:27:34.487Z,5.53
2023-01-11T16:30:37.049Z,5.73
2023-01-11T16:33:39.102Z,5.25
2023-01-11T16:36:41.867Z,5.80
2023-01-11T16:39:44.422Z,5.85
2023-01-11T16:43:16.155Z,5.47
2023-01-11T16:46:47.284Z,6.70
2023-01-11T16:50:11.770Z,6.72
2023-01-11T16:53:16.036Z,6.78
2023-01-11T16:56:22.357Z,6.85
2023-01-11T16:59:30.991Z,7.22
2023-01-11T17:02:38.982Z,6.60
2023-01-11T17:05:41.127Z,7.72
2023-01-11T17:08:51.026Z,7.10
2023-01-11T17:11:53.671Z,7.10
2023-01-11T17:15:32.979Z,8.07
2023-01-11T17:18:38.927Z,7.37
2023-01-11T17:21:49.232Z,6.72
2023-01-11T17:25:04.433Z,6.85
2023-01-11T17:28:14.546Z,7.28
2023-01-11T17:31:33.675Z,7.68
2023-01-11T17:34:40.379Z,7.57
2023-01-11T17:37:45.463Z,7.30
2023-01-11T17:40:48.212Z,6.78
2023-01-11T17:44:09.007Z,7.53
2023-01-11T17:47:13.103Z,6.72
2023-01-11T17:50:27.006Z,7.27
2023-01-11T17:53:36.898Z,8.10
2023-01-11T17:56:41.953Z,6.55
2023-01-11T17:59:45.552Z,5.28
2023-01-11T18:02:49.139Z,4.72
2023-01-11T18:05:51.280Z,7.20
2023-01-11T18:08:58.543Z,5.53
2023-01-11T18:12:14.323Z,5.68
2023-01-11T18:15:38.381Z,6.35
2023-01-11T18:18:42.089Z,6.43
2023-01-11T18:21:53.356Z,5.30
2023-01-11T18:24:58.725Z,7.70
2023-01-11T18:28:19.455Z,7.40
2023-01-11T18:31:22.175Z,8.10
2023-01-11T18:34:29.294Z,8.95
2023-01-11T18:37:31.506Z,9.23
2023-01-11T18:40:35.828Z,11.73
2023-01-11T18:43:38.157Z,14.52
2023-01-11T18:46:40.223Z,16.90
2023-01-11T18:49:43.006Z,13.73
2023-01-11T18:52:45.502Z,11.50
2023-01-11T18:55:47.662Z,11.73
2023-01-11T18:58:49.855Z,12.73
2023-01-11T19:02:01.679Z,12.43
2023-01-11T19:05:20.149Z,11.88
2023-01-11T19:08:22.565Z,15.67
2023-01-11T19:11:25.718Z,14.13
2023-01-11T19:14:28.141Z,12.60
2023-01-11T19:17:31.876Z,12.82
2023-01-11T19:20:34.235Z,11.45
2023-01-11T19:23:37.157Z,12.23
2023-01-11T19:26:44.853Z,11.63
2023-01-11T19:29:47.316Z,13.32
2023-01-11T19:32:53.582Z,12.98
2023-01-11T19:35:55.526Z,12.52
2023-01-11T19:38:58.717Z,14.77
2023-01-11T19:42:02.565Z,13.40
2023-01-11T19:45:05.849Z,14.38
2023-01-11T19:48:08.906Z,14.55
2023-01-11T19:51:12.920Z,16.58
2023-01-11T19:54:16.224Z,16.50
2023-01-11T19:57:23.125Z,16.10
2023-01-11T20:00:25.255Z,16.30
2023-01-11T20:03:29.114Z,16.13
2023-01-11T20:06:32.584Z,15.32
2023-01-11T20:09:37.637Z,14.47
2023-01-11T20:12:39.688Z,26.17
2023-01-11T20:15:42.690Z,17.88
2023-01-11T20:18:51.132Z,13.23
2023-01-11T20:21:53.226Z,12.98
2023-01-11T20:24:56.217Z,12.80
2023-01-11T20:27:58.753Z,13.82
2023-01-11T20:31:02.222Z,13.50
2023-01-11T20:34:10.710Z,14.57
2023-01-11T20:37:15.997Z,15.13
2023-01-11T20:40:18.548Z,16.50
2023-01-11T20:43:20.724Z,13.85
2023-01-11T20:46:22.779Z,16.17
2023-01-11T20:49:31.546Z,14.70
2023-01-11T20:52:34.973Z,13.05
2023-01-11T20:55:37.180Z,15.67
2023-01-11T20:58:39.173Z,13.32
2023-01-11T21:01:41.555Z,13.55
2023-01-11T21:04:43.787Z,13.68
2023-01-11T21:07:46.965Z,13.75
2023-01-11T21:10:49.322Z,13.83
2023-01-11T21:13:55.322Z,14.52
2023-01-11T21:16:58.858Z,14.18
2023-01-11T21:20:00.911Z,14.05
2023-01-11T21:23:03.108Z,17.33
2023-01-11T21:26:13.331Z,17.37
2023-01-11T21:29:15.883Z,18.88
2023-01-11T21:32:20.671Z,17.60
2023-01-11T21:35:23.040Z,16.70
2023-01-11T21:38:25.390Z,15.73
2023-01-11T21:41:48.937Z,15.67
2023-01-11T21:44:51.291Z,14.73
2023-01-11T21:47:53.441Z,16.50
2023-01-11T21:50:56.704Z,15.93
2023-01-11T21:53:59.742Z,15.80
2023-01-11T21:57:02.465Z,16.73
2023-01-11T22:00:05.941Z,14.95
2023-01-11T22:03:08.307Z,15.32
2023-01-11T22:06:10.488Z,14.75
2023-01-11T22:09:13.146Z,15.40
2023-01-11T22:12:15.382Z,14.23
2023-01-11T22:15:18.354Z,14.35
2023-01-11T22:18:22.549Z,14.27
2023-01-11T22:21:26.402Z,15.00
2023-01-11T22:24:28.609Z,15.55
2023-01-11T22:27:32.493Z,14.73
2023-01-11T22:30:35.059Z,16.02
2023-01-11T22:33:37.065Z,15.32
2023-01-11T22:36:39.095Z,15.55
2023-01-11T22:39:42.795Z,14.50
2023-01-11T22:42:45.007Z,14.70
2023-01-11T22:45:59.492Z,15.35
2023-01-11T22:49:01.861Z,16.20
2023-01-11T22:52:03.998Z,15.68
2023-01-11T22:55:07.244Z,15.48
2023-01-11T22:58:11.142Z,15.10
2023-01-11T23:01:19.311Z,15.43
2023-01-11T23:04:21.693Z,14.90
2023-01-11T23:07:23.914Z,17.52
2023-01-11T23:10:25.820Z,18.17
2023-01-11T23:13:46.978Z,21.37
2023-01-11T23:16:49.996Z,19.20
2023-01-11T23:19:55.369Z,20.40
2023-01-11T23:22:57.513Z,20.05
2023-01-11T23:25:59.917Z,20.42
2023-01-11T23:29:02.273Z,20.57
2023-01-11T23:32:04.726Z,19.80
2023-01-11T23:35:09.150Z,19.42
2023-01-11T23:38:14.027Z,20.33
2023-01-11T23:41:37.765Z,20.40
2023-01-11T23:44:40.191Z,19.77
2023-01-11T23:47:43.273Z,17.95
2023-01-11T23:50:46.183Z,17.02
2023-01-11T23:53:50.568Z,18.85
2023-01-11T23:56:53.864Z,21.35
2023-01-11T23:59:56.633Z,21.00
